Time;durP1;ratioP1;P1;durP2;ratioP2;P2;SDS_P1;SDS_P2;PMS_P1;PMS_P2;Temp;Humidity;BMP_temperature;BMP_pressure;BME280_temperature;BME280_humidity;BME280_pressure;Samples;Min_cycle;Max_cycle;Signal;HPM_P1;HPM_P2
2020/12/27 00:01:38;;;;;;;3.88;2.40;;;;;;;;;;5029928;28;20546;-51
2020/12/27 00:04:04;;;;;;;2.83;2.63;;;;;;;;;;5030622;28;20167;-50
2020/12/27 00:06:31;;;;;;;7.30;2.80;;;;;;;;;;5028502;28;20493;-50
2020/12/27 00:08:57;;;;;;;3.00;2.80;;;;;;;;;;5030372;28;20400;-49
2020/12/27 00:11:24;;;;;;;2.50;2.40;;;;;;;;;;5030112;28;20192;-49
2020/12/27 00:13:50;;;;;;;2.65;2.47;;;;;;;;;;5030026;28;20266;-50
2020/12/27 00:16:22;;;;;;;2.75;2.55;;;;;;;;;;5050049;28;20174;-49
2020/12/27 00:18:48;;;;;;;2.20;2.05;;;;;;;;;;5050153;28;20175;-49
2020/12/27 00:21:14;;;;;;;2.97;2.77;;;;;;;;;;5049832;28;20280;-50
2020/12/27 00:23:40;;;;;;;2.78;2.58;;;;;;;;;;5049903;28;20433;-50
2020/12/27 00:26:12;;;;;;;2.90;2.70;;;;;;;;;;5050085;28;20175;-50
2020/12/27 00:28:38;;;;;;;2.80;2.60;;;;;;;;;;5049976;28;20492;-49
2020/12/27 00:31:04;;;;;;;4.20;2.53;;;;;;;;;;5049827;28;20203;-49
2020/12/27 00:33:31;;;;;;;3.10;2.90;;;;;;;;;;5049844;28;20200;-49
2020/12/27 00:35:57;;;;;;;4.30;2.50;;;;;;;;;;5049918;28;20519;-50
2020/12/27 00:38:23;;;;;;;2.63;2.42;;;;;;;;;;5049773;28;20178;-50
2020/12/27 00:40:49;;;;;;;2.50;2.40;;;;;;;;;;5050484;28;20234;-51
2020/12/27 00:43:15;;;;;;;2.73;2.53;;;;;;;;;;5053027;28;20183;-50
2020/12/27 00:45:41;;;;;;;3.00;2.80;;;;;;;;;;5050128;28;20431;-50
2020/12/27 00:48:07;;;;;;;3.93;2.43;;;;;;;;;;5053395;28;20172;-50
2020/12/27 00:50:33;;;;;;;3.55;3.30;;;;;;;;;;5053184;28;20481;-50
2020/12/27 00:52:59;;;;;;;2.60;2.50;;;;;;;;;;5052880;28;20283;-51
2020/12/27 00:55:25;;;;;;;2.40;2.20;;;;;;;;;;5053107;28;20398;-50
2020/12/27 00:57:51;;;;;;;2.57;2.37;;;;;;;;;;5053252;28;20408;-49
2020/12/27 01:00:17;;;;;;;3.03;2.00;;;;;;;;;;5053107;28;20501;-51
2020/12/27 01:02:43;;;;;;;2.73;2.63;;;;;;;;;;5052824;28;20449;-50
2020/12/27 01:05:09;;;;;;;2.10;2.00;;;;;;;;;;5052822;28;20765;-49
2020/12/27 01:07:35;;;;;;;2.80;2.60;;;;;;;;;;5052962;28;20945;-50
2020/12/27 01:10:01;;;;;;;2.37;2.17;;;;;;;;;;5053124;28;20259;-51
2020/12/27 01:12:27;;;;;;;3.42;1.95;;;;;;;;;;5052573;28;20413;-49
2020/12/27 01:14:53;;;;;;;2.63;2.43;;;;;;;;;;5049816;28;20193;-50
2020/12/27 01:17:19;;;;;;;2.40;2.30;;;;;;;;;;5052758;28;20414;-50
2020/12/27 01:19:45;;;;;;;7.03;3.00;;;;;;;;;;5052748;28;20449;-51
2020/12/27 01:22:11;;;;;;;2.33;2.10;;;;;;;;;;5052231;28;20948;-51
2020/12/27 01:24:37;;;;;;;1.80;1.70;;;;;;;;;;5052751;28;20411;-50
2020/12/27 01:27:03;;;;;;;6.63;2.43;;;;;;;;;;5052565;28;20402;-49
2020/12/27 01:29:29;;;;;;;2.88;2.28;;;;;;;;;;5052562;28;20469;-50
2020/12/27 01:32:01;;;;;;;2.00;1.90;;;;;;;;;;5052179;28;20172;-50
2020/12/27 01:34:27;;;;;;;2.03;1.92;;;;;;;;;;5052593;28;20402;-49
2020/12/27 01:36:53;;;;;;;2.35;2.22;;;;;;;;;;5052432;28;20178;-50
2020/12/27 01:39:19;;;;;;;2.30;2.20;;;;;;;;;;5052409;28;20188;-51
2020/12/27 01:41:45;;;;;;;2.05;1.95;;;;;;;;;;5052117;28;20191;-52
2020/12/27 01:44:15;;;;;;;2.50;2.30;;;;;;;;;;5050691;28;20167;-49
2020/12/27 01:46:42;;;;;;;3.58;2.30;;;;;;;;;;5052366;28;20160;-50
2020/12/27 01:49:08;;;;;;;2.05;1.95;;;;;;;;;;5052096;28;20169;-49
2020/12/27 01:51:34;;;;;;;1.83;1.73;;;;;;;;;;5051758;28;20174;-50
2020/12/27 01:54:01;;;;;;;2.20;2.10;;;;;;;;;;5050938;28;20216;-50
2020/12/27 01:56:29;;;;;;;2.10;2.00;;;;;;;;;;5052124;28;20175;-49
2020/12/27 01:58:58;;;;;;;1.70;1.60;;;;;;;;;;5051908;28;20197;-50
2020/12/27 02:01:24;;;;;;;2.00;1.90;;;;;;;;;;5051285;28;20640;-50
2020/12/27 02:03:51;;;;;;;2.13;2.00;;;;;;;;;;5051099;28;20187;-49
2020/12/27 02:06:17;;;;;;;1.95;1.70;;;;;;;;;;5051155;28;20638;-50
2020/12/27 02:08:43;;;;;;;1.90;1.80;;;;;;;;;;5051872;28;20172;-49
2020/12/27 02:11:09;;;;;;;2.10;1.95;;;;;;;;;;5051401;28;20170;-51
2020/12/27 02:13:46;;;;;;;1.73;1.63;;;;;;;;;;5052147;28;20241;-50
2020/12/27 02:16:15;;;;;;;1.77;1.67;;;;;;;;;;5048446;28;20907;-49
2020/12/27 02:18:41;;;;;;;1.75;1.65;;;;;;;;;;5051811;28;20184;-48
2020/12/27 02:21:07;;;;;;;1.60;1.50;;;;;;;;;;5051149;28;20200;-53
2020/12/27 02:23:34;;;;;;;1.80;1.70;;;;;;;;;;5051533;28;20430;-48
2020/12/27 02:26:00;;;;;;;1.60;1.50;;;;;;;;;;5051438;28;20172;-48
2020/12/27 02:28:26;;;;;;;2.05;1.92;;;;;;;;;;5051529;28;20164;-48
2020/12/27 02:30:52;;;;;;;1.70;1.60;;;;;;;;;;5051459;28;20172;-48
2020/12/27 02:33:18;;;;;;;2.40;1.60;;;;;;;;;;5051158;28;20675;-47
2020/12/27 02:35:44;;;;;;;1.67;1.47;;;;;;;;;;5051413;28;20759;-48
2020/12/27 02:38:10;;;;;;;1.60;1.50;;;;;;;;;;5051255;28;20399;-48
2020/12/27 02:40:36;;;;;;;1.60;1.50;;;;;;;;;;5051489;28;20455;-48
2020/12/27 02:43:01;;;;;;;2.10;1.87;;;;;;;;;;5050894;28;20419;-47
2020/12/27 02:45:27;;;;;;;1.67;1.57;;;;;;;;;;5047361;28;20423;-50
2020/12/27 02:47:53;;;;;;;1.60;1.50;;;;;;;;;;5051410;28;20481;-49
2020/12/27 02:50:19;;;;;;;1.60;1.50;;;;;;;;;;5051521;28;20261;-51
2020/12/27 02:52:45;;;;;;;1.70;1.60;;;;;;;;;;5050725;28;20422;-51
2020/12/27 02:55:11;;;;;;;1.50;1.40;;;;;;;;;;5049856;28;20428;-50
2020/12/27 02:57:37;;;;;;;1.73;1.63;;;;;;;;;;5051017;28;20899;-48
2020/12/27 03:00:05;;;;;;;1.70;1.60;;;;;;;;;;5050761;28;20452;-48
2020/12/27 03:02:31;;;;;;;1.55;1.45;;;;;;;;;;5050751;28;20424;-48
2020/12/27 03:04:57;;;;;;;1.30;1.20;;;;;;;;;;5050441;28;20187;-48
2020/12/27 03:07:23;;;;;;;1.50;1.40;;;;;;;;;;5050919;28;20409;-48
2020/12/27 03:09:49;;;;;;;1.27;1.27;;;;;;;;;;5050739;28;20450;-49
2020/12/27 03:12:15;;;;;;;1.73;1.63;;;;;;;;;;5050570;28;20426;-48
2020/12/27 03:14:41;;;;;;;1.77;1.67;;;;;;;;;;5050624;28;20402;-49
2020/12/27 03:17:07;;;;;;;1.50;1.40;;;;;;;;;;5047668;28;20433;-51
2020/12/27 03:19:33;;;;;;;1.65;1.30;;;;;;;;;;5050644;28;20535;-50
2020/12/27 03:21:59;;;;;;;1.80;1.70;;;;;;;;;;5050261;28;20268;-51
2020/12/27 03:24:25;;;;;;;1.70;1.60;;;;;;;;;;5050744;28;20398;-50
2020/12/27 03:26:51;;;;;;;1.40;1.30;;;;;;;;;;5050534;28;20169;-48
2020/12/27 03:29:17;;;;;;;2.93;1.83;;;;;;;;;;5050560;28;20391;-49
2020/12/27 03:31:43;;;;;;;1.80;1.70;;;;;;;;;;5050166;28;20797;-49
2020/12/27 03:34:08;;;;;;;1.70;1.60;;;;;;;;;;5050581;28;20420;-49
2020/12/27 03:36:34;;;;;;;1.70;1.60;;;;;;;;;;5050454;28;20402;-50
2020/12/27 03:39:01;;;;;;;1.93;1.80;;;;;;;;;;5050548;28;20412;-51
2020/12/27 03:41:27;;;;;;;1.70;1.60;;;;;;;;;;5050021;28;20483;-50
2020/12/27 03:43:53;;;;;;;1.40;1.40;;;;;;;;;;5050337;28;20211;-51
2020/12/27 03:46:19;;;;;;;1.63;1.53;;;;;;;;;;5049196;28;20421;-51
2020/12/27 03:48:45;;;;;;;1.63;1.53;;;;;;;;;;5050404;28;20919;-48
2020/12/27 03:51:10;;;;;;;1.70;1.60;;;;;;;;;;5050208;28;20395;-48
2020/12/27 03:53:37;;;;;;;1.43;1.33;;;;;;;;;;5050247;28;20450;-49
2020/12/27 03:56:03;;;;;;;1.80;1.70;;;;;;;;;;5050408;28;20447;-51
2020/12/27 03:58:30;;;;;;;3.58;1.75;;;;;;;;;;5050141;28;20186;-49
2020/12/27 04:00:55;;;;;;;1.60;1.50;;;;;;;;;;5050284;28;20199;-48
2020/12/27 04:03:21;;;;;;;1.60;1.50;;;;;;;;;;5049880;28;20657;-48
2020/12/27 04:05:47;;;;;;;1.70;1.60;;;;;;;;;;5050248;28;20822;-48
2020/12/27 04:08:13;;;;;;;1.60;1.50;;;;;;;;;;5050265;28;20408;-49
2020/12/27 04:10:39;;;;;;;1.60;1.50;;;;;;;;;;5050094;28;20451;-50
2020/12/27 04:13:05;;;;;;;1.70;1.60;;;;;;;;;;5049867;28;20278;-51
2020/12/27 04:15:31;;;;;;;1.50;1.40;;;;;;;;;;5047074;28;20432;-51
2020/12/27 04:17:57;;;;;;;1.80;1.70;;;;;;;;;;5053008;28;20434;-48
2020/12/27 04:20:23;;;;;;;4.40;1.87;;;;;;;;;;5053821;28;20970;-49
2020/12/27 04:22:50;;;;;;;1.60;1.50;;;;;;;;;;5053598;28;20559;-49
2020/12/27 04:25:16;;;;;;;1.80;1.70;;;;;;;;;;5053726;28;20399;-49
2020/12/27 04:27:42;;;;;;;1.65;1.48;;;;;;;;;;5053823;28;20542;-48
2020/12/27 04:30:08;;;;;;;1.20;1.20;;;;;;;;;;5053671;28;20173;-49
2020/12/27 04:32:34;;;;;;;1.40;1.30;;;;;;;;;;5053433;28;20450;-50
2020/12/27 04:35:00;;;;;;;1.63;1.53;;;;;;;;;;5053739;28;20405;-51
2020/12/27 04:37:26;;;;;;;1.65;1.55;;;;;;;;;;5053551;28;20404;-51
2020/12/27 04:39:52;;;;;;;1.47;1.37;;;;;;;;;;5053623;28;20198;-50
2020/12/27 04:42:18;;;;;;;1.40;1.30;;;;;;;;;;5052995;28;20483;-50
2020/12/27 04:44:44;;;;;;;1.70;1.60;;;;;;;;;;5052108;28;20430;-50
2020/12/27 04:47:10;;;;;;;1.23;1.23;;;;;;;;;;5053383;28;20928;-47
2020/12/27 04:49:36;;;;;;;1.40;1.30;;;;;;;;;;5053484;28;20481;-51
2020/12/27 04:52:02;;;;;;;1.60;1.50;;;;;;;;;;5053048;28;20737;-51
2020/12/27 04:54:30;;;;;;;1.40;1.20;;;;;;;;;;5052089;28;20177;-52
2020/12/27 04:56:56;;;;;;;1.42;1.33;;;;;;;;;;5053258;28;20163;-51
2020/12/27 04:59:22;;;;;;;1.50;1.30;;;;;;;;;;5053269;28;20198;-51
2020/12/27 05:01:52;;;;;;;1.10;1.10;;;;;;;;;;5053087;28;20252;-47
2020/12/27 05:04:23;;;;;;;1.20;1.10;;;;;;;;;;5053103;28;20407;-47
2020/12/27 05:06:49;;;;;;;1.40;1.30;;;;;;;;;;5053312;28;20181;-49
2020/12/27 05:09:15;;;;;;;1.50;1.40;;;;;;;;;;5048923;28;20645;-48
2020/12/27 05:11:41;;;;;;;1.23;1.13;;;;;;;;;;5052910;28;20403;-48
2020/12/27 05:14:07;;;;;;;1.20;1.20;;;;;;;;;;5053118;28;20482;-48
2020/12/27 05:16:33;;;;;;;1.30;1.20;;;;;;;;;;5053253;28;20173;-50
2020/12/27 05:19:01;;;;;;;1.20;1.20;;;;;;;;;;5053058;28;20409;-51
2020/12/27 05:21:27;;;;;;;1.42;1.33;;;;;;;;;;5052968;28;20889;-50
2020/12/27 05:23:54;;;;;;;1.20;1.10;;;;;;;;;;5052945;28;20684;-48
2020/12/27 05:26:28;;;;;;;1.20;1.10;;;;;;;;;;5052770;28;20397;-49
2020/12/27 05:28:54;;;;;;;2.08;1.30;;;;;;;;;;5052921;28;20204;-48
2020/12/27 05:31:20;;;;;;;1.10;1.10;;;;;;;;;;5052397;28;20171;-48
2020/12/27 05:33:47;;;;;;;1.60;1.50;;;;;;;;;;5052579;28;20468;-47
2020/12/27 05:36:15;;;;;;;3.05;1.40;;;;;;;;;;5052472;28;20403;-48
2020/12/27 05:38:47;;;;;;;1.83;1.30;;;;;;;;;;5049230;28;20181;-48
2020/12/27 05:41:14;;;;;;;1.67;1.58;;;;;;;;;;5051966;28;20219;-50
2020/12/27 05:43:40;;;;;;;1.70;1.60;;;;;;;;;;5052364;28;20187;-48
2020/12/27 05:46:07;;;;;;;1.20;1.20;;;;;;;;;;5052247;28;20273;-50
2020/12/27 05:48:33;;;;;;;1.17;1.17;;;;;;;;;;5052373;28;20456;-48
2020/12/27 05:51:04;;;;;;;1.52;1.42;;;;;;;;;;5052132;28;20168;-48
2020/12/27 05:53:32;;;;;;;1.55;1.42;;;;;;;;;;5052310;28;20196;-50
2020/12/27 05:56:00;;;;;;;1.17;1.17;;;;;;;;;;5052175;28;20177;-50
2020/12/27 05:58:26;;;;;;;1.20;1.10;;;;;;;;;;5052075;28;20187;-47
2020/12/27 06:00:53;;;;;;;1.15;1.15;;;;;;;;;;5052040;28;20280;-51
2020/12/27 06:03:20;;;;;;;1.73;1.42;;;;;;;;;;5051607;28;20207;-49
2020/12/27 06:05:46;;;;;;;1.77;1.65;;;;;;;;;;5051887;28;20194;-50
2020/12/27 06:08:33;;;;;;;1.50;1.40;;;;;;;;;;5048018;28;20597;-51
2020/12/27 06:11:00;;;;;;;1.52;1.42;;;;;;;;;;5051616;28;20767;-51
2020/12/27 06:13:28;;;;;;;1.50;1.40;;;;;;;;;;5051455;28;20225;-47
2020/12/27 06:15:58;;;;;;;1.48;1.38;;;;;;;;;;5051717;28;20164;-50
2020/12/27 06:18:28;;;;;;;1.50;1.40;;;;;;;;;;5051637;28;20247;-48
2020/12/27 06:21:04;;;;;;;1.42;1.33;;;;;;;;;;5051560;28;20577;-48
2020/12/27 06:23:31;;;;;;;1.40;1.30;;;;;;;;;;5051483;28;20250;-47
2020/12/27 06:25:58;;;;;;;1.42;1.30;;;;;;;;;;5051557;28;20185;-48
2020/12/27 06:28:24;;;;;;;1.33;1.27;;;;;;;;;;5051565;28;20175;-51
2020/12/27 06:30:55;;;;;;;2.30;1.80;;;;;;;;;;5051489;28;20178;-50
2020/12/27 06:33:22;;;;;;;1.55;1.35;;;;;;;;;;5051201;28;20410;-49
2020/12/27 06:35:48;;;;;;;1.40;1.30;;;;;;;;;;5051355;28;20197;-49
2020/12/27 06:38:19;;;;;;;1.30;1.20;;;;;;;;;;5049279;28;20641;-49
2020/12/27 06:40:46;;;;;;;1.33;1.23;;;;;;;;;;5051128;28;20511;-48
2020/12/27 06:43:15;;;;;;;1.30;1.30;;;;;;;;;;5050950;28;20234;-48
2020/12/27 06:45:41;;;;;;;1.75;1.65;;;;;;;;;;5051149;28;20642;-51
2020/12/27 06:48:07;;;;;;;1.25;1.25;;;;;;;;;;5051236;28;20175;-50
2020/12/27 06:50:42;;;;;;;1.33;1.33;;;;;;;;;;5051119;28;20181;-51
2020/12/27 06:53:10;;;;;;;1.40;1.30;;;;;;;;;;5050868;28;20458;-47
2020/12/27 06:55:37;;;;;;;1.52;1.42;;;;;;;;;;5051052;28;20176;-48
2020/12/27 06:58:32;;;;;;;1.45;1.35;;;;;;;;;;5051010;28;20178;-50
2020/12/27 07:01:20;;;;;;;1.17;1.08;;;;;;;;;;5042062;28;20682;-48
2020/12/27 07:03:46;;;;;;;1.55;1.42;;;;;;;;;;5050878;28;20561;-49
2020/12/27 07:06:16;;;;;;;1.20;1.20;;;;;;;;;;5050842;28;20198;-48
2020/12/27 07:08:44;;;;;;;1.30;1.30;;;;;;;;;;5046907;28;20247;-47
2020/12/27 07:11:10;;;;;;;1.88;1.23;;;;;;;;;;5050654;28;20225;-48
2020/12/27 07:13:45;;;;;;;1.45;1.27;;;;;;;;;;5050642;28;20275;-48
2020/12/27 07:16:12;;;;;;;1.00;1.00;;;;;;;;;;5050856;28;20188;-49
2020/12/27 07:18:38;;;;;;;1.00;1.00;;;;;;;;;;5050725;28;20204;-51
2020/12/27 07:21:10;;;;;;;1.20;1.10;;;;;;;;;;5050513;28;20664;-55
2020/12/27 07:23:37;;;;;;;2.33;1.20;;;;;;;;;;5050647;28;20196;-52
2020/12/27 07:26:04;;;;;;;1.50;1.20;;;;;;;;;;5050816;28;20639;-48
2020/12/27 07:28:31;;;;;;;1.35;1.27;;;;;;;;;;5050599;28;20170;-49
2020/12/27 07:30:57;;;;;;;1.40;1.30;;;;;;;;;;5050617;28;20181;-48
2020/12/27 07:33:30;;;;;;;1.63;1.53;;;;;;;;;;5050444;28;20697;-48
2020/12/27 07:36:00;;;;;;;1.20;1.15;;;;;;;;;;5050620;28;20884;-52
2020/12/27 07:38:45;;;;;;;1.60;1.50;;;;;;;;;;5048944;28;20269;-50
2020/12/27 07:41:11;;;;;;;1.10;1.10;;;;;;;;;;5049105;28;20195;-50
2020/12/27 07:43:38;;;;;;;1.20;1.10;;;;;;;;;;5050745;28;20215;-51
2020/12/27 07:46:08;;;;;;;0.95;0.95;;;;;;;;;;5050464;28;20426;-51
2020/12/27 07:48:40;;;;;;;1.10;1.00;;;;;;;;;;5050528;28;20191;-48
2020/12/27 07:51:12;;;;;;;1.25;1.17;;;;;;;;;;5051345;28;20256;-48
2020/12/27 07:53:38;;;;;;;1.30;1.20;;;;;;;;;;5054499;28;20659;-48
2020/12/27 07:56:05;;;;;;;1.20;1.10;;;;;;;;;;5054329;28;20175;-48
2020/12/27 07:58:31;;;;;;;4.20;1.00;;;;;;;;;;5054483;28;21000;-51
2020/12/27 08:00:57;;;;;;;0.90;0.90;;;;;;;;;;5054236;28;20252;-48
2020/12/27 08:03:23;;;;;;;1.00;0.90;;;;;;;;;;5054018;28;20415;-48
2020/12/27 08:05:49;;;;;;;0.80;0.80;;;;;;;;;;5053487;28;20964;-48
2020/12/27 08:08:17;;;;;;;1.00;1.00;;;;;;;;;;5050420;28;20185;-48
2020/12/27 08:10:45;;;;;;;1.00;1.00;;;;;;;;;;5053546;28;20780;-51
2020/12/27 08:13:11;;;;;;;1.10;1.10;;;;;;;;;;5053262;28;20185;-48
2020/12/27 08:15:38;;;;;;;0.97;0.97;;;;;;;;;;5053373;28;20178;-49
2020/12/27 08:18:05;;;;;;;0.88;0.88;;;;;;;;;;5053346;28;20408;-51
2020/12/27 08:20:32;;;;;;;0.98;0.98;;;;;;;;;;5053187;28;20274;-48
2020/12/27 08:23:02;;;;;;;1.00;0.95;;;;;;;;;;5053498;28;20620;-49
2020/12/27 08:25:29;;;;;;;0.88;0.88;;;;;;;;;;5053698;28;20176;-48
2020/12/27 08:27:56;;;;;;;1.23;1.13;;;;;;;;;;5050328;28;20661;-49
2020/12/27 08:30:22;;;;;;;0.93;0.93;;;;;;;;;;5031928;28;20221;-49
2020/12/27 08:32:48;;;;;;;1.27;1.17;;;;;;;;;;5033100;28;20202;-51
2020/12/27 08:35:25;;;;;;;0.93;0.93;;;;;;;;;;5033109;28;20655;-51
2020/12/27 08:38:00;;;;;;;1.00;1.00;;;;;;;;;;5029606;28;20850;-48
2020/12/27 08:40:28;;;;;;;1.00;0.90;;;;;;;;;;5033304;28;20293;-49
2020/12/27 08:42:55;;;;;;;0.90;0.90;;;;;;;;;;5032849;28;20207;-49
2020/12/27 08:45:21;;;;;;;1.20;1.00;;;;;;;;;;5032843;28;20551;-49
2020/12/27 08:47:53;;;;;;;1.10;1.10;;;;;;;;;;5033354;28;20534;-49
2020/12/27 08:50:26;;;;;;;1.00;1.00;;;;;;;;;;5032096;28;20176;-50
2020/12/27 08:52:56;;;;;;;1.02;1.02;;;;;;;;;;5023669;28;20263;-48
2020/12/27 08:55:27;;;;;;;1.00;1.00;;;;;;;;;;5033262;28;20587;-48
2020/12/27 08:57:57;;;;;;;0.80;0.80;;;;;;;;;;5033407;28;20202;-50
2020/12/27 09:00:30;;;;;;;0.90;0.90;;;;;;;;;;5033289;28;20192;-49
2020/12/27 09:02:57;;;;;;;1.10;1.00;;;;;;;;;;5031768;28;20210;-48
2020/12/27 09:05:27;;;;;;;1.20;1.10;;;;;;;;;;5032443;28;20197;-49
2020/12/27 09:07:53;;;;;;;0.90;0.90;;;;;;;;;;5037944;28;20182;-49
2020/12/27 09:10:26;;;;;;;0.90;0.90;;;;;;;;;;5053212;28;20178;-49
2020/12/27 09:12:56;;;;;;;1.25;1.00;;;;;;;;;;5038064;28;20191;-48
2020/12/27 09:15:42;;;;;;;1.00;1.00;;;;;;;;;;5033078;28;20226;-48
2020/12/27 09:18:09;;;;;;;0.90;0.90;;;;;;;;;;5022257;28;20245;-50
2020/12/27 09:20:36;;;;;;;1.02;1.00;;;;;;;;;;5032908;28;20561;-51
2020/12/27 09:23:11;;;;;;;1.05;1.05;;;;;;;;;;5032545;28;20612;-48
2020/12/27 09:25:37;;;;;;;1.10;1.00;;;;;;;;;;5051756;28;20625;-48
2020/12/27 09:28:11;;;;;;;1.00;1.00;;;;;;;;;;5051649;28;20173;-50
2020/12/27 09:30:38;;;;;;;3.50;1.02;;;;;;;;;;5028374;28;20189;-50
2020/12/27 09:33:04;;;;;;;0.90;0.90;;;;;;;;;;5032107;28;20738;-49
2020/12/27 09:35:30;;;;;;;1.00;1.00;;;;;;;;;;5032661;28;20258;-49
2020/12/27 09:37:56;;;;;;;1.60;0.95;;;;;;;;;;5043538;28;20460;-48
2020/12/27 09:40:22;;;;;;;1.10;1.00;;;;;;;;;;5052266;28;20225;-48
2020/12/27 09:42:48;;;;;;;2.00;0.97;;;;;;;;;;5052162;28;20245;-48
2020/12/27 09:45:22;;;;;;;1.23;1.13;;;;;;;;;;5052293;28;20402;-48
2020/12/27 09:47:53;;;;;;;0.95;0.95;;;;;;;;;;5052403;28;20217;-48
2020/12/27 09:50:27;;;;;;;1.17;1.08;;;;;;;;;;5052189;28;20167;-51
2020/12/27 09:52:53;;;;;;;1.10;1.00;;;;;;;;;;5052006;28;20194;-48
2020/12/27 09:55:19;;;;;;;1.00;1.00;;;;;;;;;;5052128;28;20177;-48
2020/12/27 09:57:46;;;;;;;1.00;1.00;;;;;;;;;;5052349;28;20405;-48
2020/12/27 10:00:13;;;;;;;1.10;1.10;;;;;;;;;;5052066;28;20456;-49
2020/12/27 10:02:39;;;;;;;0.82;0.82;;;;;;;;;;5051954;28;20179;-48
2020/12/27 10:05:05;;;;;;;0.90;0.90;;;;;;;;;;5051973;28;20276;-48
2020/12/27 10:07:31;;;;;;;0.95;0.90;;;;;;;;;;5049003;28;20428;-49
2020/12/27 10:09:57;;;;;;;1.20;1.10;;;;;;;;;;5044936;28;20726;-50
2020/12/27 10:12:23;;;;;;;1.10;1.10;;;;;;;;;;5031738;28;20425;-50
2020/12/27 10:14:49;;;;;;;1.38;1.00;;;;;;;;;;5030512;28;20469;-50
2020/12/27 10:17:15;;;;;;;1.10;1.10;;;;;;;;;;5031182;28;20174;-48
2020/12/27 10:19:41;;;;;;;1.45;1.13;;;;;;;;;;5031879;28;20195;-48
2020/12/27 10:22:07;;;;;;;1.20;1.10;;;;;;;;;;5031319;28;20182;-49
2020/12/27 10:24:34;;;;;;;1.30;1.20;;;;;;;;;;5031192;28;20175;-48
2020/12/27 10:27:01;;;;;;;1.15;1.05;;;;;;;;;;5031085;28;20409;-48
2020/12/27 10:29:27;;;;;;;0.90;0.90;;;;;;;;;;5031157;28;20167;-52
2020/12/27 10:31:54;;;;;;;1.05;0.98;;;;;;;;;;5030734;28;20179;-50
2020/12/27 10:34:20;;;;;;;1.05;1.00;;;;;;;;;;5031477;28;20545;-48
2020/12/27 10:36:47;;;;;;;0.90;0.90;;;;;;;;;;5033991;28;20179;-48
2020/12/27 10:39:14;;;;;;;1.58;1.35;;;;;;;;;;5049959;28;20206;-49
2020/12/27 10:41:40;;;;;;;1.25;1.15;;;;;;;;;;5041715;28;20681;-48
2020/12/27 10:44:08;;;;;;;1.20;1.10;;;;;;;;;;5031690;28;20180;-50
2020/12/27 10:46:35;;;;;;;1.75;1.20;;;;;;;;;;5048755;28;20180;-49
2020/12/27 10:49:04;;;;;;;1.40;1.30;;;;;;;;;;5049194;28;20647;-51
2020/12/27 10:51:37;;;;;;;1.30;1.20;;;;;;;;;;5049024;28;20192;-50
2020/12/27 10:54:03;;;;;;;1.02;1.02;;;;;;;;;;5049665;28;20212;-52
2020/12/27 10:56:29;;;;;;;1.10;1.00;;;;;;;;;;5050580;28;20174;-49
2020/12/27 10:58:55;;;;;;;1.00;1.00;;;;;;;;;;5051045;28;20259;-51
2020/12/27 11:01:22;;;;;;;1.00;1.00;;;;;;;;;;5050386;28;20464;-51
2020/12/27 11:03:48;;;;;;;1.00;1.00;;;;;;;;;;5050874;28;20713;-48
2020/12/27 11:06:14;;;;;;;0.90;0.90;;;;;;;;;;5050695;28;20280;-49
2020/12/27 11:08:39;;;;;;;1.37;1.00;;;;;;;;;;5046983;28;20947;-49
2020/12/27 11:11:05;;;;;;;1.50;1.40;;;;;;;;;;5050480;28;20409;-49
2020/12/27 11:13:31;;;;;;;1.47;1.37;;;;;;;;;;5050806;28;20423;-50
2020/12/27 11:15:57;;;;;;;1.00;1.00;;;;;;;;;;5050623;28;20924;-48
2020/12/27 11:18:23;;;;;;;1.77;1.60;;;;;;;;;;5050694;28;21355;-50
2020/12/27 11:20:49;;;;;;;2.20;1.70;;;;;;;;;;5050658;28;20459;-49
2020/12/27 11:23:15;;;;;;;1.58;1.48;;;;;;;;;;5050435;28;20429;-49
2020/12/27 11:25:41;;;;;;;2.40;1.40;;;;;;;;;;5050476;28;20215;-50
2020/12/27 11:28:07;;;;;;;1.40;1.30;;;;;;;;;;5050396;28;20166;-49
2020/12/27 11:30:33;;;;;;;1.00;1.00;;;;;;;;;;5050664;28;20399;-49
2020/12/27 11:33:00;;;;;;;1.35;1.25;;;;;;;;;;5050301;28;20414;-49
2020/12/27 11:35:27;;;;;;;1.30;1.20;;;;;;;;;;5050535;28;20225;-49
2020/12/27 11:37:53;;;;;;;1.50;1.40;;;;;;;;;;5046800;28;20436;-50
2020/12/27 11:40:19;;;;;;;1.52;1.45;;;;;;;;;;5050353;28;20200;-51
2020/12/27 11:42:45;;;;;;;1.42;1.33;;;;;;;;;;5050142;28;20187;-52
2020/12/27 11:45:11;;;;;;;1.20;1.10;;;;;;;;;;5050284;28;20167;-49
2020/12/27 11:47:37;;;;;;;1.05;1.05;;;;;;;;;;5049183;28;20401;-49
2020/12/27 11:50:04;;;;;;;1.70;1.60;;;;;;;;;;5048594;28;20227;-49
2020/12/27 11:52:30;;;;;;;1.30;1.20;;;;;;;;;;5029684;28;20429;-50
2020/12/27 11:54:56;;;;;;;1.15;1.15;;;;;;;;;;5030359;28;20182;-53
2020/12/27 11:57:22;;;;;;;1.40;1.30;;;;;;;;;;5030520;28;20256;-52
2020/12/27 11:59:48;;;;;;;1.80;1.47;;;;;;;;;;5030231;28;20969;-48
2020/12/27 12:02:14;;;;;;;1.40;1.30;;;;;;;;;;5029953;28;20453;-48
2020/12/27 12:04:40;;;;;;;1.60;1.50;;;;;;;;;;5030328;28;20422;-48
2020/12/27 12:07:06;;;;;;;1.80;1.47;;;;;;;;;;5030138;28;20405;-49
2020/12/27 12:09:32;;;;;;;1.60;1.50;;;;;;;;;;5045346;28;20456;-49
2020/12/27 12:11:58;;;;;;;1.48;1.38;;;;;;;;;;5049736;28;20461;-49
2020/12/27 12:14:24;;;;;;;1.40;1.30;;;;;;;;;;5049991;28;20263;-49
2020/12/27 12:16:50;;;;;;;1.10;1.10;;;;;;;;;;5050155;28;20745;-49
2020/12/27 12:19:17;;;;;;;2.25;1.33;;;;;;;;;;5049952;28;20876;-50
2020/12/27 12:21:43;;;;;;;2.60;1.40;;;;;;;;;;5049652;28;20285;-51
2020/12/27 12:24:09;;;;;;;1.20;1.10;;;;;;;;;;5050014;28;20308;-52
2020/12/27 12:26:36;;;;;;;2.50;1.10;;;;;;;;;;5050049;28;20432;-51
2020/12/27 12:29:02;;;;;;;1.10;1.10;;;;;;;;;;5049803;28;20412;-50
2020/12/27 12:31:28;;;;;;;1.50;1.40;;;;;;;;;;5049758;28;20167;-49
2020/12/27 12:33:54;;;;;;;1.50;1.40;;;;;;;;;;5049903;28;20701;-52
2020/12/27 12:36:26;;;;;;;1.65;1.30;;;;;;;;;;5050121;28;20185;-49
2020/12/27 12:38:52;;;;;;;1.45;1.35;;;;;;;;;;5052017;28;20186;-52
2020/12/27 12:41:25;;;;;;;1.50;1.40;;;;;;;;;;5053036;28;20206;-52
2020/12/27 12:43:51;;;;;;;1.35;1.25;;;;;;;;;;5053670;28;20204;-49
2020/12/27 12:46:18;;;;;;;1.95;1.20;;;;;;;;;;5053766;28;20516;-49
2020/12/27 12:48:44;;;;;;;1.35;1.25;;;;;;;;;;5053773;28;20521;-50
2020/12/27 12:51:10;;;;;;;1.37;1.30;;;;;;;;;;5053397;28;20248;-49
2020/12/27 12:53:36;;;;;;;1.33;1.23;;;;;;;;;;5053669;28;20493;-51
2020/12/27 12:56:03;;;;;;;1.73;1.50;;;;;;;;;;5053478;28;20410;-51
2020/12/27 12:58:29;;;;;;;1.45;1.35;;;;;;;;;;5053358;28;20415;-49
2020/12/27 13:00:55;;;;;;;1.40;1.30;;;;;;;;;;5053260;28;20202;-49
2020/12/27 13:03:21;;;;;;;1.50;1.40;;;;;;;;;;5052838;28;20418;-51
2020/12/27 13:05:47;;;;;;;2.60;1.40;;;;;;;;;;5053022;28;20892;-51
2020/12/27 13:08:13;;;;;;;1.50;1.40;;;;;;;;;;5048664;28;20423;-53
2020/12/27 13:10:39;;;;;;;2.23;2.00;;;;;;;;;;5052967;28;20402;-55
2020/12/27 13:13:05;;;;;;;1.38;1.27;;;;;;;;;;5052907;28;20428;-53
2020/12/27 13:15:31;;;;;;;1.95;1.80;;;;;;;;;;5053104;28;20220;-50
2020/12/27 13:17:57;;;;;;;1.83;1.73;;;;;;;;;;5052933;28;20190;-50
2020/12/27 13:20:24;;;;;;;1.70;1.60;;;;;;;;;;5051401;28;20206;-52
2020/12/27 13:22:50;;;;;;;5.22;1.65;;;;;;;;;;5052583;28;20204;-52
2020/12/27 13:25:16;;;;;;;1.70;1.60;;;;;;;;;;5052580;28;20229;-52
2020/12/27 13:27:42;;;;;;;2.08;1.65;;;;;;;;;;5052756;28;20179;-52
2020/12/27 13:30:09;;;;;;;3.80;1.77;;;;;;;;;;5052576;28;20195;-53
2020/12/27 13:32:35;;;;;;;1.77;1.55;;;;;;;;;;5052412;28;20212;-54
2020/12/27 13:35:01;;;;;;;3.97;1.60;;;;;;;;;;5052669;28;20173;-52
2020/12/27 13:37:28;;;;;;;3.75;2.10;;;;;;;;;;5051510;28;20399;-55
2020/12/27 13:39:54;;;;;;;1.85;1.75;;;;;;;;;;5049525;28;20200;-53
2020/12/27 13:42:20;;;;;;;2.25;2.15;;;;;;;;;;5051985;28;20677;-54
2020/12/27 13:44:46;;;;;;;1.83;1.73;;;;;;;;;;5052449;28;20184;-52
2020/12/27 13:47:12;;;;;;;1.77;1.67;;;;;;;;;;5052266;28;20407;-53
2020/12/27 13:49:38;;;;;;;1.80;1.70;;;;;;;;;;5052266;28;20169;-53
2020/12/27 13:52:03;;;;;;;1.80;1.70;;;;;;;;;;5051789;28;20440;-53
2020/12/27 13:54:29;;;;;;;7.50;1.97;;;;;;;;;;5052189;28;20402;-53
2020/12/27 13:56:56;;;;;;;2.53;1.93;;;;;;;;;;5052258;28;20399;-54
2020/12/27 13:59:23;;;;;;;1.70;1.60;;;;;;;;;;5052060;28;20403;-54
2020/12/27 14:01:49;;;;;;;7.32;2.53;;;;;;;;;;5051711;28;20200;-53
2020/12/27 14:04:15;;;;;;;1.50;1.40;;;;;;;;;;5051852;28;20163;-53
2020/12/27 14:06:41;;;;;;;2.20;2.10;;;;;;;;;;5051960;28;20195;-53
2020/12/27 14:09:07;;;;;;;2.05;1.92;;;;;;;;;;5047719;28;20222;-53
2020/12/27 14:11:34;;;;;;;1.92;1.83;;;;;;;;;;5051672;28;20173;-52
2020/12/27 14:14:00;;;;;;;1.60;1.50;;;;;;;;;;5051711;28;20188;-55
2020/12/27 14:16:26;;;;;;;3.17;2.50;;;;;;;;;;5051801;28;20207;-54
2020/12/27 14:18:52;;;;;;;1.67;1.57;;;;;;;;;;5051791;28;20176;-53
2020/12/27 14:21:19;;;;;;;2.00;1.90;;;;;;;;;;5051185;28;20534;-53
2020/12/27 14:23:45;;;;;;;2.15;2.05;;;;;;;;;;5051455;28;20218;-52
2020/12/27 14:26:11;;;;;;;1.60;1.50;;;;;;;;;;5051500;28;20171;-52
2020/12/27 14:28:37;;;;;;;1.70;1.60;;;;;;;;;;5051616;28;20217;-52
2020/12/27 14:31:04;;;;;;;1.80;1.70;;;;;;;;;;5051376;28;20171;-53
2020/12/27 14:33:30;;;;;;;2.15;1.80;;;;;;;;;;5051418;28;20195;-53
2020/12/27 14:35:56;;;;;;;1.50;1.40;;;;;;;;;;5051289;28;20225;-53
2020/12/27 14:38:22;;;;;;;1.65;1.55;;;;;;;;;;5049794;28;20933;-53
2020/12/27 14:40:48;;;;;;;1.70;1.57;;;;;;;;;;5051388;28;20191;-54
2020/12/27 14:43:14;;;;;;;1.70;1.60;;;;;;;;;;5050823;28;20854;-52